Wetterdaten: Woche 05.06.23 - 11.06.23 (KW23)
Datum Zeit Temp. Aussen Temp. o. S. Temp +5cm Feuchte Auss Luftdruck Regen Sonnenschein Regendauer Solar Windben Empfang
05.06.2023 00:00 16,7 C 15,6 C 12,3 C 67 % 1021,3 hPa 0,0 l/m 0,00 h 0,00 h 0 W/m 7,2 km/h (2 Bft) 97,81 %
05.06.2023 01:00 16,1 C 15,0 C 11,7 C 70 % 1021,4 hPa 0,0 l/m 0,00 h 0,00 h 0 W/m 6,3 km/h (2 Bft) 95,42 %
05.06.2023 02:00 15,6 C 14,4 C 11,2 C 74 % 1021,5 hPa 0,0 l/m 0,00 h 0,00 h 0 W/m 4,9 km/h (1 Bft) 97,77 %
05.06.2023 03:00 14,7 C 13,6 C 10,4 C 78 % 1021,4 hPa 0,0 l/m 0,00 h 0,00 h 0 W/m 4,0 km/h (1 Bft) 96,40 %
05.06.2023 04:00 13,8 C 12,7 C 9,4 C 80 % 1021,1 hPa 0,0 l/m 0,00 h 0,00 h 0 W/m 5,9 km/h (2 Bft) 96,24 %
05.06.2023 05:00 13,1 C 12,2 C 9,0 C 82 % 1021,0 hPa 0,0 l/m 0,00 h 0,00 h 9 W/m 6,6 km/h (2 Bft) 98,16 %
05.06.2023 06:00 12,7 C 12,2 C 8,9 C 83 % 1021,1 hPa 0,0 l/m 0,00 h 0,00 h 26 W/m 5,5 km/h (1 Bft) 98,26 %
05.06.2023 07:00 13,2 C 12,8 C 9,3 C 82 % 1021,2 hPa 0,0 l/m 0,23 h 0,00 h 102 W/m 8,3 km/h (2 Bft) 97,08 %
05.06.2023 08:00 15,6 C 19,3 C 12,2 C 76 % 1021,3 hPa 0,0 l/m 1,00 h 0,00 h 376 W/m 9,2 km/h (2 Bft) 96,45 %
05.06.2023 09:00 18,4 C 23,4 C 17,2 C 68 % 1021,4 hPa 0,0 l/m 1,00 h 0,00 h 542 W/m 8,0 km/h (2 Bft) 97,01 %
05.06.2023 10:00 20,1 C 22,7 C 19,7 C 63 % 1021,2 hPa 0,0 l/m 1,00 h 0,00 h 686 W/m 10,7 km/h (2 Bft) 97,22 %
05.06.2023 11:00 21,7 C 24,8 C 20,9 C 60 % 1021,0 hPa 0,0 l/m 0,97 h 0,00 h 799 W/m 12,6 km/h (3 Bft) 99,43 %
05.06.2023 12:00 23,5 C 27,8 C 25,6 C 55 % 1020,6 hPa 0,0 l/m 1,00 h 0,00 h 876 W/m 12,1 km/h (2 Bft) 97,20 %
05.06.2023 13:00 24,7 C 29,6 C 27,2 C 50 % 1020,2 hPa 0,0 l/m 1,00 h 0,00 h 905 W/m 14,1 km/h (3 Bft) 97,36 %
05.06.2023 14:00 26,0 C 31,6 C 21,8 C 42 % 1019,7 hPa 0,0 l/m 1,00 h 0,00 h 887 W/m 12,5 km/h (3 Bft) 98,09 %
05.06.2023 15:00 26,5 C 31,3 C 21,7 C 39 % 1019,3 hPa 0,0 l/m 1,00 h 0,00 h 820 W/m 11,6 km/h (2 Bft) 98,00 %
05.06.2023 16:00 26,8 C 30,9 C 22,2 C 39 % 1018,8 hPa 0,0 l/m 1,00 h 0,00 h 710 W/m 12,2 km/h (2 Bft) 96,73 %
05.06.2023 17:00 27,0 C 31,2 C 23,1 C 40 % 1018,5 hPa 0,0 l/m 1,00 h 0,00 h 558 W/m 10,5 km/h (2 Bft) 97,37 %
05.06.2023 18:00 26,8 C 30,6 C 23,0 C 41 % 1018,1 hPa 0,0 l/m 1,00 h 0,00 h 398 W/m 9,4 km/h (2 Bft) 98,52 %
05.06.2023 19:00 25,7 C 26,6 C 21,0 C 43 % 1018,0 hPa 0,0 l/m 0,90 h 0,00 h 221 W/m 8,5 km/h (2 Bft) 98,19 %
05.06.2023 20:00 23,8 C 23,0 C 19,1 C 47 % 1018,2 hPa 0,0 l/m 0,00 h 0,00 h 50 W/m 7,9 km/h (2 Bft) 96,07 %
05.06.2023 21:00 22,5 C 21,4 C 17,6 C 51 % 1018,4 hPa 0,0 l/m 0,00 h 0,00 h 15 W/m 4,3 km/h (1 Bft) 98,60 %
05.06.2023 22:00 21,0 C 19,5 C 16,1 C 56 % 1018,9 hPa 0,0 l/m 0,00 h 0,00 h 0 W/m 3,7 km/h (1 Bft) 97,71 %
05.06.2023 23:00 19,5 C 18,5 C 15,0 C 63 % 1019,1 hPa 0,0 l/m 0,00 h 0,00 h 0 W/m 7,3 km/h (2 Bft) 95,74 %
06.06.2023 00:00 18,1 C 17,1 C 13,6 C 74 % 1019,4 hPa 0,0 l/m 0,00 h 0,00 h 0 W/m 8,4 km/h (2 Bft) 99,46 %
06.06.2023 01:00 17,0 C 16,0 C 12,6 C 78 % 1019,5 hPa 0,0 l/m 0,00 h 0,00 h 0 W/m 8,4 km/h (2 Bft) 96,14 %
06.06.2023 02:00 16,0 C 15,1 C 11,8 C 81 % 1019,5 hPa 0,0 l/m 0,00 h 0,00 h 0 W/m 9,2 km/h (2 Bft) 96,59 %
06.06.2023 03:00 14,9 C 14,1 C 10,7 C 84 % 1019,5 hPa 0,0 l/m 0,00 h 0,00 h 0 W/m 7,2 km/h (2 Bft) 99,78 %
06.06.2023 04:00 13,9 C 13,0 C 9,7 C 87 % 1019,5 hPa 0,0 l/m 0,00 h 0,00 h 0 W/m 8,6 km/h (2 Bft) 99,27 %
06.06.2023 05:00 13,1 C 12,3 C 9,0 C 88 % 1019,6 hPa 0,0 l/m 0,00 h 0,00 h 9 W/m 5,9 km/h (2 Bft) 97,29 %
06.06.2023 06:00 12,8 C 12,2 C 8,9 C 89 % 1019,7 hPa 0,0 l/m 0,00 h 0,00 h 27 W/m 7,2 km/h (2 Bft) 99,05 %
06.06.2023 07:00 13,3 C 13,2 C 9,5 C 89 % 1019,9 hPa 0,0 l/m 0,17 h 0,00 h 94 W/m 8,3 km/h (2 Bft) 99,93 %
06.06.2023 08:00 15,6 C 19,2 C 12,1 C 82 % 1020,0 hPa 0,0 l/m 1,00 h 0,00 h 365 W/m 10,8 km/h (2 Bft) 98,61 %
06.06.2023 09:00 18,3 C 22,7 C 16,7 C 74 % 1020,1 hPa 0,0 l/m 0,98 h 0,00 h 553 W/m 8,2 km/h (2 Bft) 99,29 %
06.06.2023 10:00 19,4 C 22,1 C 19,2 C 72 % 1020,0 hPa 0,0 l/m 1,00 h 0,00 h 692 W/m 10,1 km/h (2 Bft) 97,27 %
06.06.2023 11:00 20,9 C 24,1 C 20,5 C 69 % 1020,0 hPa 0,0 l/m 1,00 h 0,00 h 812 W/m 11,9 km/h (2 Bft) 96,14 %
06.06.2023 12:00 23,3 C 27,8 C 26,4 C 63 % 1019,7 hPa 0,0 l/m 1,00 h 0,00 h 886 W/m 11,1 km/h (2 Bft) 96,11 %
06.06.2023 13:00 24,8 C 30,1 C 28,1 C 58 % 1019,4 hPa 0,0 l/m 1,00 h 0,00 h 918 W/m 12,6 km/h (3 Bft) 98,08 %
06.06.2023 14:00 26,5 C 31,9 C 22,5 C 51 % 1019,0 hPa 0,0 l/m 1,00 h 0,00 h 902 W/m 12,0 km/h (2 Bft) 97,05 %
06.06.2023 15:00 26,8 C 29,6 C 22,6 C 48 % 1018,7 hPa 0,0 l/m 0,73 h 0,00 h 661 W/m 13,6 km/h (3 Bft) 98,14 %
06.06.2023 16:00 27,2 C 29,4 C 23,0 C 44 % 1018,4 hPa 0,0 l/m 0,73 h 0,00 h 550 W/m 11,3 km/h (2 Bft) 96,37 %
06.06.2023 17:00 26,3 C 28,6 C 22,4 C 47 % 1018,3 hPa 0,0 l/m 0,60 h 0,00 h 419 W/m 10,4 km/h (2 Bft) 98,42 %
06.06.2023 18:00 26,1 C 26,9 C 22,0 C 47 % 1018,2 hPa 0,0 l/m 0,27 h 0,00 h 236 W/m 10,0 km/h (2 Bft) 95,92 %
06.06.2023 19:00 24,2 C 24,2 C 20,0 C 49 % 1018,3 hPa 0,0 l/m 0,23 h 0,00 h 136 W/m 9,7 km/h (2 Bft) 99,21 %
06.06.2023 20:00 23,8 C 23,5 C 19,3 C 48 % 1018,3 hPa 0,0 l/m 0,27 h 0,00 h 73 W/m 6,2 km/h (2 Bft) 97,95 %
06.06.2023 21:00 22,4 C 21,2 C 17,5 C 54 % 1018,6 hPa 0,0 l/m 0,00 h 0,00 h 17 W/m 1,8 km/h (1 Bft) 95,95 %
06.06.2023 22:00 21,4 C 20,1 C 16,6 C 57 % 1019,1 hPa 0,0 l/m 0,00 h 0,00 h 0 W/m 0,6 km/h (0 Bft) 98,36 %
06.06.2023 23:00 20,7 C 19,5 C 16,1 C 62 % 1019,4 hPa 0,0 l/m 0,00 h 0,00 h 0 W/m 3,5 km/h (1 Bft) 98,32 %
07.06.2023 00:00 20,2 C 19,1 C 15,8 C 71 % 1019,4 hPa 0,0 l/m 0,00 h 0,00 h 0 W/m 7,1 km/h (2 Bft) 95,67 %
07.06.2023 01:00 19,2 C 18,1 C 14,7 C 74 % 1019,4 hPa 0,0 l/m 0,00 h 0,00 h 0 W/m 5,6 km/h (1 Bft) 98,79 %
07.06.2023 02:00 18,2 C 16,7 C 13,5 C 78 % 1019,5 hPa 0,0 l/m 0,00 h 0,00 h 0 W/m 0,3 km/h (0 Bft) 95,65 %
07.06.2023 03:00 17,0 C 15,6 C 12,4 C 81 % 1019,5 hPa 0,0 l/m 0,00 h 0,00 h 0 W/m 0,0 km/h (0 Bft) 96,30 %
07.06.2023 04:00 16,1 C 15,1 C 12,0 C 83 % 1019,3 hPa 0,0 l/m 0,00 h 0,00 h 0 W/m 0,0 km/h (0 Bft) 98,53 %
07.06.2023 05:00 16,0 C 15,3 C 11,9 C 83 % 1019,3 hPa 0,0 l/m 0,00 h 0,00 h 8 W/m 3,5 km/h (1 Bft) 96,80 %
07.06.2023 06:00 16,0 C 15,6 C 12,0 C 83 % 1019,4 hPa 0,0 l/m 0,00 h 0,00 h 44 W/m 3,3 km/h (1 Bft) 97,49 %
07.06.2023 07:00 16,2 C 15,8 C 12,2 C 82 % 1019,6 hPa 0,0 l/m 0,00 h 0,00 h 93 W/m 6,8 km/h (2 Bft) 97,30 %
07.06.2023 08:00 16,6 C 16,6 C 12,8 C 81 % 1019,9 hPa 0,0 l/m 0,00 h 0,00 h 149 W/m 5,9 km/h (2 Bft) 97,93 %
07.06.2023 09:00 17,0 C 17,1 C 13,3 C 80 % 1020,4 hPa 0,0 l/m 0,00 h 0,00 h 162 W/m 7,6 km/h (2 Bft) 96,45 %
07.06.2023 10:00 16,7 C 16,5 C 12,6 C 81 % 1020,6 hPa 0,0 l/m 0,00 h 0,30 h 118 W/m 7,2 km/h (2 Bft) 98,70 %
07.06.2023 11:00 15,7 C 15,2 C 11,1 C 88 % 1020,6 hPa 0,2 l/m 0,00 h 0,47 h 114 W/m 9,1 km/h (2 Bft) 96,05 %
07.06.2023 12:00 15,3 C 15,4 C 11,5 C 92 % 1020,6 hPa 0,0 l/m 0,00 h 0,20 h 147 W/m 7,9 km/h (2 Bft) 97,83 %
07.06.2023 13:00 15,9 C 16,4 C 12,4 C 91 % 1020,4 hPa 0,0 l/m 0,00 h 0,00 h 220 W/m 8,9 km/h (2 Bft) 95,17 %
07.06.2023 14:00 18,9 C 22,1 C 15,7 C 83 % 1019,8 hPa 0,2 l/m 0,50 h 0,00 h 602 W/m 13,1 km/h (3 Bft) 96,83 %
07.06.2023 15:00 21,0 C 23,4 C 17,3 C 75 % 1019,4 hPa 0,0 l/m 0,57 h 0,00 h 549 W/m 12,4 km/h (3 Bft) 98,06 %
07.06.2023 16:00 21,7 C 22,6 C 17,9 C 72 % 1018,9 hPa 0,0 l/m 0,40 h 0,00 h 352 W/m 13,5 km/h (3 Bft) 99,43 %
07.06.2023 17:00 22,7 C 25,2 C 19,0 C 71 % 1018,3 hPa 0,0 l/m 0,73 h 0,00 h 433 W/m 11,8 km/h (2 Bft) 94,80 %
07.06.2023 18:00 23,6 C 25,8 C 19,7 C 68 % 1017,8 hPa 0,0 l/m 0,67 h 0,00 h 301 W/m 8,7 km/h (2 Bft) 97,75 %
07.06.2023 19:00 23,1 C 23,5 C 18,6 C 69 % 1017,7 hPa 0,0 l/m 0,37 h 0,00 h 153 W/m 11,6 km/h (2 Bft) 97,07 %
07.06.2023 20:00 21,2 C 20,5 C 16,7 C 76 % 1017,8 hPa 0,0 l/m 0,00 h 0,00 h 49 W/m 5,6 km/h (1 Bft) 96,46 %
07.06.2023 21:00 20,6 C 19,5 C 15,9 C 79 % 1017,9 hPa 0,0 l/m 0,23 h 0,00 h 19 W/m 1,8 km/h (1 Bft) 98,43 %
07.06.2023 22:00 19,9 C 18,6 C 14,9 C 83 % 1018,0 hPa 0,0 l/m 0,00 h 0,07 h 0 W/m 0,0 km/h (0 Bft) 96,95 %
07.06.2023 23:00 19,1 C 18,1 C 14,4 C 83 % 1018,0 hPa 0,0 l/m 0,00 h 0,00 h 0 W/m 1,5 km/h (1 Bft) 96,78 %
08.06.2023 00:00 18,5 C 17,5 C 14,0 C 82 % 1018,0 hPa 0,0 l/m 0,00 h 0,00 h 0 W/m 2,7 km/h (1 Bft) 98,67 %
08.06.2023 01:00 18,1 C 17,1 C 13,7 C 82 % 1017,8 hPa 0,0 l/m 0,00 h 0,00 h 0 W/m 6,6 km/h (2 Bft) 96,72 %
08.06.2023 02:00 17,3 C 16,2 C 12,9 C 83 % 1017,5 hPa 0,0 l/m 0,00 h 0,00 h 0 W/m 5,6 km/h (1 Bft) 96,98 %
08.06.2023 03:00 16,7 C 15,9 C 12,4 C 85 % 1017,3 hPa 0,0 l/m 0,00 h 0,00 h 0 W/m 5,8 km/h (2 Bft) 99,78 %
08.06.2023 04:00 16,3 C 15,4 C 12,1 C 86 % 1017,2 hPa 0,0 l/m 0,00 h 0,00 h 0 W/m 3,4 km/h (1 Bft) 95,58 %
08.06.2023 05:00 15,9 C 15,0 C 11,7 C 85 % 1017,1 hPa 0,0 l/m 0,00 h 0,00 h 10 W/m 2,3 km/h (1 Bft) 97,33 %
08.06.2023 06:00 15,6 C 15,0 C 11,7 C 85 % 1017,0 hPa 0,0 l/m 0,00 h 0,00 h 30 W/m 3,9 km/h (1 Bft) 97,77 %
08.06.2023 07:00 16,1 C 15,7 C 12,1 C 84 % 1017,1 hPa 0,0 l/m 0,27 h 0,00 h 108 W/m 8,3 km/h (2 Bft) 96,88 %
08.06.2023 08:00 17,8 C 20,4 C 14,3 C 79 % 1017,1 hPa 0,0 l/m 0,67 h 0,00 h 295 W/m 9,4 km/h (2 Bft) 97,86 %
08.06.2023 09:00 20,1 C 23,2 C 17,3 C 74 % 1017,1 hPa 0,0 l/m 0,80 h 0,00 h 479 W/m 10,3 km/h (2 Bft) 99,43 %
08.06.2023 10:00 21,6 C 24,0 C 20,2 C 70 % 1017,0 hPa 0,0 l/m 1,00 h 0,00 h 661 W/m 11,4 km/h (2 Bft) 95,20 %
08.06.2023 11:00 23,0 C 26,0 C 21,3 C 68 % 1016,7 hPa 0,0 l/m 1,00 h 0,00 h 765 W/m 11,8 km/h (2 Bft) 97,63 %
08.06.2023 12:00 24,9 C 28,5 C 25,2 C 63 % 1016,3 hPa 0,0 l/m 0,90 h 0,00 h 764 W/m 11,6 km/h (2 Bft) 97,37 %
08.06.2023 13:00 25,9 C 30,3 C 27,1 C 61 % 1015,8 hPa 0,0 l/m 0,90 h 0,00 h 808 W/m 11,7 km/h (2 Bft) 99,15 %
08.06.2023 14:00 26,8 C 29,8 C 22,8 C 59 % 1015,2 hPa 0,0 l/m 0,50 h 0,00 h 575 W/m 11,3 km/h (2 Bft) 96,14 %
08.06.2023 15:00 27,9 C 31,8 C 23,1 C 57 % 1014,5 hPa 0,0 l/m 0,83 h 0,00 h 730 W/m 12,4 km/h (3 Bft) 98,07 %
08.06.2023 16:00 28,0 C 30,5 C 23,5 C 57 % 1014,2 hPa 0,0 l/m 0,73 h 0,03 h 565 W/m 11,7 km/h (2 Bft) 98,30 %
08.06.2023 17:00 28,6 C 32,5 C 24,7 C 55 % 1013,7 hPa 0,0 l/m 1,00 h 0,00 h 590 W/m 11,2 km/h (2 Bft) 96,66 %
08.06.2023 18:00 28,2 C 31,1 C 24,4 C 55 % 1013,2 hPa 0,0 l/m 0,95 h 0,00 h 398 W/m 14,9 km/h (3 Bft) 97,91 %
08.06.2023 19:00 26,2 C 26,7 C 21,6 C 56 % 1013,3 hPa 0,0 l/m 0,70 h 0,00 h 183 W/m 11,7 km/h (2 Bft) 99,08 %
08.06.2023 20:00 24,9 C 24,0 C 20,2 C 59 % 1013,5 hPa 0,0 l/m 0,00 h 0,00 h 48 W/m 8,1 km/h (2 Bft) 96,36 %
08.06.2023 21:00 23,5 C 21,9 C 18,5 C 66 % 1014,0 hPa 0,0 l/m 0,00 h 0,00 h 15 W/m 1,9 km/h (1 Bft) 97,79 %
08.06.2023 22:00 21,7 C 19,6 C 16,4 C 72 % 1014,1 hPa 0,0 l/m 0,00 h 0,00 h 0 W/m 0,1 km/h (0 Bft) 98,45 %
08.06.2023 23:00 20,5 C 19,0 C 15,8 C 74 % 1014,4 hPa 0,0 l/m 0,00 h 0,00 h 0 W/m 1,1 km/h (0 Bft) 95,53 %
09.06.2023 00:00 19,6 C 18,2 C 15,3 C 77 % 1014,7 hPa 0,0 l/m 0,00 h 0,00 h 0 W/m 1,5 km/h (1 Bft) 98,73 %
09.06.2023 01:00 18,7 C 17,1 C 13,9 C 78 % 1014,7 hPa 0,0 l/m 0,00 h 0,00 h 0 W/m 0,3 km/h (0 Bft) 98,28 %
09.06.2023 02:00 17,6 C 16,0 C 12,9 C 82 % 1014,5 hPa 0,0 l/m 0,00 h 0,00 h 0 W/m 0,1 km/h (0 Bft) 95,87 %
09.06.2023 03:00 16,6 C 15,0 C 12,2 C 86 % 1014,3 hPa 0,0 l/m 0,00 h 0,00 h 0 W/m 0,0 km/h (0 Bft) 98,35 %
09.06.2023 04:00 16,0 C 14,8 C 11,9 C 87 % 1014,3 hPa 0,0 l/m 0,00 h 0,00 h 0 W/m 0,3 km/h (0 Bft) 97,22 %
09.06.2023 05:00 15,6 C 14,4 C 11,7 C 89 % 1014,4 hPa 0,0 l/m 0,00 h 0,00 h 9 W/m 0,7 km/h (0 Bft) 97,63 %
09.06.2023 06:00 15,7 C 15,2 C 11,9 C 91 % 1014,4 hPa 0,0 l/m 0,00 h 0,00 h 25 W/m 1,7 km/h (1 Bft) 96,06 %
09.06.2023 07:00 16,7 C 16,9 C 13,3 C 91 % 1014,7 hPa 0,0 l/m 0,33 h 0,00 h 110 W/m 3,3 km/h (1 Bft) 98,58 %
09.06.2023 08:00 20,3 C 24,3 C 16,6 C 80 % 1014,8 hPa 0,0 l/m 1,00 h 0,00 h 372 W/m 0,0 km/h (0 Bft) 96,04 %
09.06.2023 09:00 24,0 C 28,6 C 21,2 C 67 % 1014,8 hPa 0,0 l/m 1,00 h 0,00 h 535 W/m 2,2 km/h (1 Bft) 98,94 %
09.06.2023 10:00 25,6 C 27,6 C 24,8 C 61 % 1014,6 hPa 0,0 l/m 1,00 h 0,00 h 694 W/m 6,2 km/h (2 Bft) 95,46 %
09.06.2023 11:00 26,8 C 29,5 C 25,6 C 57 % 1014,4 hPa 0,0 l/m 1,00 h 0,00 h 810 W/m 8,2 km/h (2 Bft) 97,30 %
09.06.2023 12:00 28,4 C 31,9 C 29,5 C 51 % 1014,1 hPa 0,0 l/m 1,00 h 0,00 h 883 W/m 8,5 km/h (2 Bft) 97,75 %
09.06.2023 13:00 30,0 C 34,8 C 32,3 C 47 % 1013,8 hPa 0,0 l/m 1,00 h 0,00 h 900 W/m 10,8 km/h (2 Bft) 97,20 %
09.06.2023 14:00 29,8 C 31,5 C 26,0 C 46 % 1013,4 hPa 0,0 l/m 0,43 h 0,00 h 485 W/m 9,4 km/h (2 Bft) 97,37 %
09.06.2023 15:00 30,0 C 33,5 C 25,6 C 45 % 1013,0 hPa 0,0 l/m 0,77 h 0,00 h 682 W/m 9,4 km/h (2 Bft) 98,41 %
09.06.2023 16:00 30,2 C 31,6 C 25,4 C 46 % 1012,6 hPa 0,0 l/m 0,47 h 0,00 h 450 W/m 13,8 km/h (3 Bft) 96,30 %
09.06.2023 17:00 29,9 C 33,4 C 26,4 C 48 % 1012,4 hPa 0,0 l/m 0,83 h 0,00 h 534 W/m 12,6 km/h (3 Bft) 99,29 %
09.06.2023 18:00 29,6 C 31,4 C 25,7 C 49 % 1012,1 hPa 0,0 l/m 0,47 h 0,00 h 254 W/m 11,2 km/h (2 Bft) 97,20 %
09.06.2023 19:00 28,9 C 30,7 C 24,6 C 49 % 1012,3 hPa 0,0 l/m 0,97 h 0,00 h 251 W/m 11,1 km/h (2 Bft) 96,10 %
09.06.2023 20:00 27,5 C 26,7 C 22,9 C 50 % 1012,7 hPa 0,0 l/m 0,00 h 0,00 h 44 W/m 10,9 km/h (2 Bft) 98,68 %
09.06.2023 21:00 25,9 C 24,7 C 21,2 C 56 % 1013,2 hPa 0,0 l/m 0,00 h 0,00 h 8 W/m 6,4 km/h (2 Bft) 97,25 %
09.06.2023 22:00 24,3 C 23,1 C 19,5 C 62 % 1013,7 hPa 0,0 l/m 0,00 h 0,00 h 0 W/m 5,2 km/h (1 Bft) 96,95 %
09.06.2023 23:00 23,1 C 21,9 C 18,4 C 65 % 1014,1 hPa 0,0 l/m 0,00 h 0,00 h 0 W/m 3,7 km/h (1 Bft) 99,05 %
10.06.2023 00:00 21,8 C 20,4 C 17,1 C 69 % 1014,3 hPa 0,0 l/m 0,00 h 0,00 h 0 W/m 3,2 km/h (1 Bft) 96,80 %
10.06.2023 01:00 20,6 C 19,1 C 15,9 C 72 % 1014,3 hPa 0,0 l/m 0,00 h 0,00 h 0 W/m 2,0 km/h (1 Bft) 96,86 %
10.06.2023 02:00 19,5 C 18,2 C 15,2 C 74 % 1014,3 hPa 0,0 l/m 0,00 h 0,00 h 0 W/m 1,8 km/h (1 Bft) 99,40 %
10.06.2023 03:00 18,9 C 17,7 C 14,6 C 75 % 1014,5 hPa 0,0 l/m 0,00 h 0,00 h 0 W/m 1,4 km/h (1 Bft) 95,37 %
10.06.2023 04:00 18,3 C 17,2 C 14,2 C 76 % 1014,6 hPa 0,0 l/m 0,00 h 0,00 h 0 W/m 2,6 km/h (1 Bft) 96,63 %
10.06.2023 05:00 17,9 C 16,8 C 13,9 C 78 % 1014,7 hPa 0,0 l/m 0,00 h 0,00 h 9 W/m 2,1 km/h (1 Bft) 98,33 %
10.06.2023 06:00 17,9 C 17,2 C 14,0 C 80 % 1015,0 hPa 0,0 l/m 0,00 h 0,00 h 28 W/m 1,1 km/h (0 Bft) 95,85 %
10.06.2023 07:00 18,9 C 18,7 C 15,0 C 79 % 1015,1 hPa 0,0 l/m 0,33 h 0,00 h 115 W/m 6,2 km/h (2 Bft) 98,23 %
10.06.2023 08:00 21,8 C 25,5 C 18,0 C 71 % 1015,3 hPa 0,0 l/m 1,00 h 0,00 h 370 W/m 6,9 km/h (2 Bft) 99,07 %
10.06.2023 09:00 25,1 C 29,6 C 22,3 C 61 % 1015,5 hPa 0,0 l/m 1,00 h 0,00 h 534 W/m 7,0 km/h (2 Bft) 96,44 %
10.06.2023 10:00 26,5 C 29,0 C 25,5 C 56 % 1015,5 hPa 0,0 l/m 1,00 h 0,00 h 681 W/m 7,2 km/h (2 Bft) 98,22 %
10.06.2023 11:00 28,0 C 31,1 C 26,4 C 53 % 1015,4 hPa 0,0 l/m 1,00 h 0,00 h 794 W/m 7,8 km/h (2 Bft) 97,09 %
10.06.2023 12:00 29,9 C 34,3 C 31,5 C 49 % 1015,1 hPa 0,0 l/m 1,00 h 0,00 h 875 W/m 9,7 km/h (2 Bft) 96,98 %
10.06.2023 13:00 31,1 C 35,3 C 32,9 C 45 % 1014,7 hPa 0,0 l/m 0,97 h 0,00 h 868 W/m 11,9 km/h (2 Bft) 98,27 %
10.06.2023 14:00 30,7 C 33,5 C 26,6 C 45 % 1014,4 hPa 0,0 l/m 0,57 h 0,00 h 593 W/m 12,4 km/h (3 Bft) 97,81 %
10.06.2023 15:00 29,9 C 30,6 C 26,2 C 48 % 1014,3 hPa 0,0 l/m 0,07 h 0,00 h 310 W/m 7,0 km/h (2 Bft) 96,62 %
10.06.2023 16:00 30,4 C 31,0 C 26,0 C 47 % 1014,0 hPa 0,0 l/m 0,07 h 0,07 h 263 W/m 4,3 km/h (1 Bft) 98,08 %
10.06.2023 17:00 29,2 C 29,0 C 24,5 C 54 % 1013,6 hPa 0,0 l/m 0,07 h 0,03 h 190 W/m 4,9 km/h (1 Bft) 98,41 %
10.06.2023 18:00 30,0 C 32,6 C 26,0 C 50 % 1013,3 hPa 0,0 l/m 0,80 h 0,00 h 326 W/m 8,1 km/h (2 Bft) 97,13 %
10.06.2023 19:00 28,8 C 29,1 C 23,7 C 51 % 1013,4 hPa 0,0 l/m 0,73 h 0,00 h 189 W/m 9,7 km/h (2 Bft) 97,41 %
10.06.2023 20:00 26,8 C 26,0 C 21,8 C 56 % 1013,8 hPa 0,0 l/m 0,00 h 0,00 h 47 W/m 9,1 km/h (2 Bft) 99,26 %
10.06.2023 21:00 25,5 C 24,1 C 20,6 C 59 % 1014,3 hPa 0,0 l/m 0,00 h 0,00 h 15 W/m 6,4 km/h (2 Bft) 96,34 %
10.06.2023 22:00 23,8 C 22,3 C 18,8 C 65 % 1014,8 hPa 0,0 l/m 0,00 h 0,00 h 0 W/m 1,2 km/h (1 Bft) 97,93 %
10.06.2023 23:00 22,4 C 20,8 C 17,5 C 69 % 1015,2 hPa 0,0 l/m 0,00 h 0,00 h 0 W/m 0,0 km/h (0 Bft) 98,86 %
11.06.2023 00:00 21,3 C 19,7 C 16,6 C 73 % 1015,3 hPa 0,0 l/m 0,00 h 0,00 h 0 W/m 0,0 km/h (0 Bft) 93,76 %
11.06.2023 01:00 20,4 C 18,8 C 15,8 C 77 % 1015,3 hPa 0,0 l/m 0,00 h 0,00 h 0 W/m 0,0 km/h (0 Bft) 98,76 %
11.06.2023 02:00 19,5 C 18,0 C 15,0 C 80 % 1015,2 hPa 0,0 l/m 0,00 h 0,00 h 0 W/m 0,0 km/h (0 Bft) 97,87 %
11.06.2023 03:00 18,7 C 17,2 C 14,2 C 82 % 1015,3 hPa 0,0 l/m 0,00 h 0,00 h 0 W/m 0,0 km/h (0 Bft) 96,55 %
11.06.2023 04:00 18,0 C 16,5 C 13,6 C 84 % 1015,4 hPa 0,0 l/m 0,00 h 0,00 h 0 W/m 0,0 km/h (0 Bft) 97,97 %
11.06.2023 05:00 17,5 C 16,6 C 13,4 C 85 % 1015,5 hPa 0,0 l/m 0,00 h 0,00 h 9 W/m 0,0 km/h (0 Bft) 97,44 %
11.06.2023 06:00 17,7 C 17,0 C 13,9 C 85 % 1015,7 hPa 0,0 l/m 0,00 h 0,00 h 26 W/m 0,0 km/h (0 Bft) 98,05 %
11.06.2023 07:00 18,7 C 19,3 C 15,6 C 85 % 1015,8 hPa 0,0 l/m 0,33 h 0,00 h 116 W/m 2,4 km/h (1 Bft) 97,11 %
11.06.2023 08:00 23,2 C 26,5 C 19,9 C 70 % 1016,1 hPa 0,0 l/m 1,00 h 0,00 h 382 W/m 9,3 km/h (2 Bft) 96,95 %
11.06.2023 09:00 25,9 C 29,4 C 24,3 C 61 % 1016,3 hPa 0,0 l/m 1,00 h 0,00 h 547 W/m 13,3 km/h (3 Bft) 97,22 %
11.06.2023 10:00 27,2 C 28,5 C 26,9 C 58 % 1016,4 hPa 0,0 l/m 1,00 h 0,00 h 695 W/m 14,8 km/h (3 Bft) 98,85 %
11.06.2023 11:00 28,5 C 30,3 C 26,6 C 54 % 1016,2 hPa 0,0 l/m 1,00 h 0,00 h 810 W/m 13,5 km/h (3 Bft) 96,66 %
11.06.2023 12:00 29,8 C 32,7 C 30,8 C 50 % 1016,2 hPa 0,0 l/m 1,00 h 0,00 h 879 W/m 15,3 km/h (3 Bft) 97,44 %
11.06.2023 13:00 30,7 C 34,2 C 33,3 C 44 % 1016,0 hPa 0,0 l/m 1,00 h 0,00 h 907 W/m 16,7 km/h (3 Bft) 97,79 %
11.06.2023 14:00 31,4 C 35,3 C 27,9 C 41 % 1015,7 hPa 0,0 l/m 1,00 h 0,00 h 887 W/m 15,2 km/h (3 Bft) 97,47 %
11.06.2023 15:00 32,0 C 35,3 C 27,5 C 40 % 1015,5 hPa 0,0 l/m 1,00 h 0,00 h 836 W/m 13,1 km/h (3 Bft) 97,35 %
11.06.2023 16:00 32,5 C 35,7 C 27,9 C 38 % 1015,0 hPa 0,0 l/m 1,00 h 0,00 h 732 W/m 13,3 km/h (3 Bft) 98,79 %
11.06.2023 17:00 32,6 C 35,9 C 28,3 C 38 % 1014,5 hPa 0,0 l/m 1,00 h 0,00 h 594 W/m 11,1 km/h (2 Bft) 95,66 %
11.06.2023 18:00 32,3 C 35,3 C 28,3 C 39 % 1014,4 hPa 0,0 l/m 0,87 h 0,00 h 387 W/m 9,4 km/h (2 Bft) 98,85 %
11.06.2023 19:00 30,3 C 31,2 C 25,9 C 44 % 1014,3 hPa 0,0 l/m 0,77 h 0,00 h 234 W/m 10,4 km/h (2 Bft) 98,86 %
11.06.2023 20:00 28,3 C 27,0 C 23,6 C 47 % 1014,5 hPa 0,0 l/m 0,00 h 0,00 h 44 W/m 7,2 km/h (2 Bft) 96,56 %
11.06.2023 21:00 25,8 C 24,4 C 21,0 C 53 % 1015,0 hPa 0,0 l/m 0,00 h 0,00 h 14 W/m 5,0 km/h (1 Bft) 98,04 %
11.06.2023 22:00 23,7 C 22,4 C 19,1 C 57 % 1015,4 hPa 0,0 l/m 0,00 h 0,00 h 0 W/m 3,9 km/h (1 Bft) 97,51 %
11.06.2023 23:00 22,2 C 20,8 C 17,8 C 61 % 1015,5 hPa 0,0 l/m 0,00 h 0,00 h 0 W/m 2,3 km/h (1 Bft) 97,79 %
Min-Datum _ 05.06.23 05.06.23 05.06.23 05.06.23 09.06.23 - - - - 05.06.23 07.06.23
_ Min-Zeit 06:12 04:54 05:10 15:58 18:16 - - - - 00:00 13:12
Minimum _ 12,7 C 12,2 C 8,9 C 37 % 1012,1 hPa - - - - 0,0 km/h (0 Bft) 20,00 %
Max-Datum _ 11.06.23 11.06.23 10.06.23 07.06.23 05.06.23 07.06.23 05.06.23 07.06.23 07.06.23 11.06.23 05.06.23
_ Max-Zeit 17:22 17:20 13:34 12:32 00:38 11:08 12:03 10:38 14:42 12:58 00:00
Maximum _ 32,8 C 37,2 C 35,0 C 93 % 1021,5 hPa 0,2 l/m 0,08 h 0,03 h 1152 W/m 29,0 km/h
SO (5 Bft)
100,00 %
Durchschnitt _ 22,1 C 23,0 C 18,6 C 66 % 1016,9 hPa #0,4 l/m #66:38 h #1:10 h 397 W/m 7,1 km/h (2 Bft) 97,49 %
© 2023 W. Hausmann